AUA83A LOWW-LGIR
Flight info
| Callsign | AUA83A |
|---|---|
| Flight time | 1h 55m |
| Altitude | 35000 |
| Route | ARSIN1B/16 ARSIN NALOX BABIT OKTAS REDVA UL616 KOGAT TALAS UM749 ELPIS KEA UL607 GIVIS T514 XAVIS XAVI1A |
| Aircraft | A320/M-SDE3FGHIRWY/LB1 |
Departure
| Time | 2026-05-04 19:08 |
|---|---|
| Airport | Vienna International Airport (LOWW) |
Arrival
| Time | 2026-05-04 21:04 |
|---|---|
| Airport | Heraklion International Nikos Kazantzakis Airport (LGIR) |
| Time | Latitude | Longitude | Altitude | Speed | Heading |
|---|---|---|---|---|---|
| 2026-05-04 18:30 | 48.11764 | 16.56627 | 624 ft | 0 kts | 26° |
| 2026-05-04 18:58 | 48.11762 | 16.56626 | 609 ft | 3 kts | 26° |
| 2026-05-04 18:58 | 48.11738 | 16.56609 | 617 ft | 4 kts | 23° |
| 2026-05-04 18:58 | 48.11713 | 16.56595 | 623 ft | 4 kts | 12° |
| 2026-05-04 18:58 | 48.11689 | 16.56593 | 617 ft | 4 kts | 327° |
| 2026-05-04 18:59 | 48.11682 | 16.56602 | 625 ft | 0 kts | 296° |
| 2026-05-04 19:01 | 48.11694 | 16.56566 | 613 ft | 11 kts | 296° |
| 2026-05-04 19:01 | 48.11755 | 16.56376 | 617 ft | 23 kts | 289° |
| 2026-05-04 19:01 | 48.11666 | 16.56249 | 616 ft | 20 kts | 207° |
| 2026-05-04 19:01 | 48.11595 | 16.56110 | 609 ft | 17 kts | 279° |
| 2026-05-04 19:02 | 48.11643 | 16.55940 | 613 ft | 22 kts | 296° |
| 2026-05-04 19:02 | 48.11724 | 16.55691 | 614 ft | 28 kts | 296° |
| 2026-05-04 19:02 | 48.11812 | 16.55423 | 615 ft | 29 kts | 295° |
| 2026-05-04 19:02 | 48.11870 | 16.55242 | 620 ft | 27 kts | 296° |
| 2026-05-04 19:03 | 48.11952 | 16.54992 | 612 ft | 27 kts | 296° |
| 2026-05-04 19:03 | 48.12034 | 16.54743 | 622 ft | 27 kts | 296° |
| 2026-05-04 19:03 | 48.12114 | 16.54493 | 618 ft | 27 kts | 296° |
| 2026-05-04 19:03 | 48.12196 | 16.54245 | 620 ft | 27 kts | 296° |
| 2026-05-04 19:04 | 48.12277 | 16.53996 | 610 ft | 27 kts | 296° |
| 2026-05-04 19:04 | 48.12359 | 16.53749 | 612 ft | 26 kts | 296° |
| 2026-05-04 19:04 | 48.12428 | 16.53500 | 609 ft | 24 kts | 264° |
| 2026-05-04 19:04 | 48.12295 | 16.53401 | 612 ft | 23 kts | 169° |
| 2026-05-04 19:05 | 48.12225 | 16.53510 | 613 ft | 2 kts | 117° |
| 2026-05-04 19:05 | 48.12225 | 16.53511 | 612 ft | 0 kts | 117° |
| 2026-05-04 19:07 | 48.12217 | 16.53532 | 614 ft | 14 kts | 117° |
| 2026-05-04 19:08 | 48.12061 | 16.54014 | 620 ft | 86 kts | 116° |
| 2026-05-04 19:08 | 48.11718 | 16.55065 | 613 ft | 140 kts | 116° |
| 2026-05-04 19:08 | 48.11237 | 16.56518 | 850 ft | 162 kts | 119° |
| 2026-05-04 19:08 | 48.10710 | 16.58051 | 1457 ft | 164 kts | 123° |
| 2026-05-04 19:09 | 48.10200 | 16.59594 | 2069 ft | 172 kts | 124° |
| 2026-05-04 19:09 | 48.09639 | 16.61280 | 2422 ft | 195 kts | 122° |
| 2026-05-04 19:09 | 48.09003 | 16.63198 | 3038 ft | 208 kts | 123° |
| 2026-05-04 19:09 | 48.08360 | 16.65156 | 3786 ft | 217 kts | 122° |
| 2026-05-04 19:10 | 48.07671 | 16.67209 | 4610 ft | 223 kts | 127° |
| 2026-05-04 19:10 | 48.06695 | 16.68998 | 5428 ft | 223 kts | 143° |
| 2026-05-04 19:10 | 48.05392 | 16.70245 | 6256 ft | 224 kts | 161° |
| 2026-05-04 19:10 | 48.03880 | 16.71089 | 6820 ft | 245 kts | 158° |
| 2026-05-04 19:11 | 48.02341 | 16.72453 | 7283 ft | 269 kts | 148° |
| 2026-05-04 19:11 | 48.00813 | 16.74168 | 8059 ft | 278 kts | 144° |
| 2026-05-04 19:11 | 47.99292 | 16.75991 | 8965 ft | 282 kts | 144° |
| 2026-05-04 19:11 | 47.97754 | 16.77835 | 9909 ft | 285 kts | 144° |
| 2026-05-04 19:12 | 47.96163 | 16.79697 | 10495 ft | 301 kts | 145° |
| 2026-05-04 19:12 | 47.92551 | 16.83760 | 11096 ft | 348 kts | 146° |
| 2026-05-04 19:12 | 47.90570 | 16.85949 | 11698 ft | 359 kts | 146° |
| 2026-05-04 19:13 | 47.88547 | 16.88173 | 12503 ft | 364 kts | 146° |
| 2026-05-04 19:13 | 47.86497 | 16.90419 | 13339 ft | 368 kts | 146° |
| 2026-05-04 19:13 | 47.84418 | 16.92691 | 14164 ft | 373 kts | 146° |
| 2026-05-04 19:13 | 47.82315 | 16.94990 | 14927 ft | 377 kts | 146° |
| 2026-05-04 19:14 | 47.80188 | 16.97314 | 15722 ft | 381 kts | 146° |
| 2026-05-04 19:14 | 47.78038 | 16.99661 | 16518 ft | 385 kts | 146° |
| 2026-05-04 19:14 | 47.75868 | 17.02029 | 17275 ft | 390 kts | 146° |
| 2026-05-04 19:14 | 47.73668 | 17.04428 | 18002 ft | 394 kts | 146° |
| 2026-05-04 19:15 | 47.71442 | 17.06853 | 18605 ft | 400 kts | 145° |
| 2026-05-04 19:15 | 47.69185 | 17.09312 | 19167 ft | 405 kts | 145° |
| 2026-05-04 19:15 | 47.66902 | 17.11796 | 19722 ft | 409 kts | 145° |
| 2026-05-04 19:15 | 47.64595 | 17.14300 | 20255 ft | 413 kts | 145° |
| 2026-05-04 19:16 | 47.62265 | 17.16823 | 20758 ft | 417 kts | 145° |
| 2026-05-04 19:16 | 47.59915 | 17.19365 | 21243 ft | 420 kts | 145° |
| 2026-05-04 19:16 | 47.57542 | 17.21932 | 21699 ft | 424 kts | 145° |
| 2026-05-04 19:16 | 47.55150 | 17.24518 | 22136 ft | 427 kts | 145° |
| 2026-05-04 19:17 | 47.52735 | 17.27123 | 22549 ft | 431 kts | 145° |
| 2026-05-04 19:17 | 47.50302 | 17.29747 | 22950 ft | 435 kts | 145° |
| 2026-05-04 19:17 | 47.47849 | 17.32389 | 23334 ft | 438 kts | 145° |
| 2026-05-04 19:17 | 47.45374 | 17.35048 | 23668 ft | 442 kts | 144° |
| 2026-05-04 19:18 | 47.42926 | 17.37676 | 23987 ft | 444 kts | 144° |
| 2026-05-04 19:18 | 47.40379 | 17.40408 | 24315 ft | 446 kts | 144° |
| 2026-05-04 19:18 | 47.37861 | 17.43110 | 24621 ft | 449 kts | 144° |
| 2026-05-04 19:18 | 47.35330 | 17.45821 | 24938 ft | 451 kts | 144° |
| 2026-05-04 19:19 | 47.32786 | 17.48539 | 25254 ft | 452 kts | 144° |
| 2026-05-04 19:19 | 47.30231 | 17.51262 | 25564 ft | 454 kts | 144° |
| 2026-05-04 19:19 | 47.27664 | 17.53992 | 25868 ft | 456 kts | 144° |
| 2026-05-04 19:19 | 47.25082 | 17.56734 | 26151 ft | 458 kts | 144° |
| 2026-05-04 19:20 | 47.22497 | 17.59481 | 26433 ft | 460 kts | 144° |
| 2026-05-04 19:20 | 47.19896 | 17.62246 | 26700 ft | 463 kts | 144° |
| 2026-05-04 19:20 | 47.17277 | 17.65027 | 26926 ft | 466 kts | 144° |
| 2026-05-04 19:20 | 47.14672 | 17.67789 | 27143 ft | 469 kts | 144° |
| 2026-05-04 19:21 | 47.12026 | 17.70593 | 27400 ft | 470 kts | 144° |
| 2026-05-04 19:21 | 47.09367 | 17.73404 | 27671 ft | 472 kts | 144° |
| 2026-05-04 19:21 | 47.06698 | 17.76222 | 27916 ft | 473 kts | 144° |
| 2026-05-04 19:21 | 47.03985 | 17.79080 | 28174 ft | 474 kts | 144° |
| 2026-05-04 19:22 | 47.01341 | 17.81867 | 28450 ft | 474 kts | 144° |
| 2026-05-04 19:22 | 46.98632 | 17.84722 | 28795 ft | 473 kts | 144° |
| 2026-05-04 19:22 | 46.96000 | 17.87493 | 29124 ft | 472 kts | 144° |
| 2026-05-04 19:22 | 46.93338 | 17.90288 | 29442 ft | 471 kts | 144° |
| 2026-05-04 19:23 | 46.90673 | 17.93080 | 29767 ft | 471 kts | 144° |
| 2026-05-04 19:23 | 46.88006 | 17.95867 | 30086 ft | 470 kts | 144° |
| 2026-05-04 19:23 | 46.85344 | 17.98646 | 30363 ft | 470 kts | 144° |
| 2026-05-04 19:23 | 46.82683 | 18.01420 | 30630 ft | 470 kts | 144° |
| 2026-05-04 19:24 | 46.80028 | 18.04180 | 30900 ft | 469 kts | 144° |
| 2026-05-04 19:24 | 46.77369 | 18.06945 | 31160 ft | 469 kts | 144° |
| 2026-05-04 19:24 | 46.74712 | 18.09709 | 31419 ft | 469 kts | 144° |
| 2026-05-04 19:24 | 46.72054 | 18.12468 | 31686 ft | 469 kts | 144° |
| 2026-05-04 19:25 | 46.69398 | 18.15223 | 31968 ft | 468 kts | 144° |
| 2026-05-04 19:25 | 46.66747 | 18.17971 | 32273 ft | 467 kts | 144° |
| 2026-05-04 19:25 | 46.64099 | 18.20712 | 32542 ft | 467 kts | 144° |
| 2026-05-04 19:25 | 46.61453 | 18.23447 | 32817 ft | 466 kts | 144° |
| 2026-05-04 19:26 | 46.58809 | 18.26178 | 33086 ft | 466 kts | 144° |
| 2026-05-04 19:26 | 46.56166 | 18.28906 | 33361 ft | 466 kts | 144° |
| 2026-05-04 19:26 | 46.53525 | 18.31627 | 33632 ft | 465 kts | 144° |
| 2026-05-04 19:26 | 46.50882 | 18.34344 | 33893 ft | 465 kts | 144° |
| 2026-05-04 19:27 | 46.48243 | 18.37048 | 34134 ft | 465 kts | 144° |
| 2026-05-04 19:27 | 46.45599 | 18.39754 | 34370 ft | 465 kts | 144° |
| 2026-05-04 19:27 | 46.42961 | 18.42458 | 34629 ft | 464 kts | 144° |
| 2026-05-04 19:27 | 46.40328 | 18.45156 | 34869 ft | 463 kts | 144° |
| 2026-05-04 19:28 | 46.37695 | 18.47852 | 35015 ft | 464 kts | 144° |
| 2026-05-04 19:28 | 46.32373 | 18.53288 | 35043 ft | 472 kts | 145° |
| 2026-05-04 19:29 | 46.26959 | 18.58790 | 35041 ft | 478 kts | 145° |
| 2026-05-04 19:29 | 46.21489 | 18.64348 | 35045 ft | 483 kts | 145° |
| 2026-05-04 19:30 | 46.15974 | 18.69939 | 35047 ft | 486 kts | 145° |
| 2026-05-04 19:30 | 46.10442 | 18.75536 | 35052 ft | 486 kts | 145° |
| 2026-05-04 19:31 | 46.04898 | 18.81117 | 35055 ft | 486 kts | 145° |
| 2026-05-04 19:31 | 45.99351 | 18.86690 | 35053 ft | 486 kts | 145° |
| 2026-05-04 19:32 | 45.93802 | 18.92237 | 35059 ft | 486 kts | 147° |
| 2026-05-04 19:32 | 45.87836 | 18.96836 | 35062 ft | 486 kts | 153° |
| 2026-05-04 19:33 | 45.81814 | 19.01257 | 35058 ft | 487 kts | 153° |
| 2026-05-04 19:33 | 45.75785 | 19.05671 | 35057 ft | 487 kts | 153° |
| 2026-05-04 19:34 | 45.69742 | 19.10077 | 35060 ft | 488 kts | 153° |
| 2026-05-04 19:34 | 45.63738 | 19.14459 | 35056 ft | 488 kts | 153° |
| 2026-05-04 19:35 | 45.57692 | 19.18871 | 35059 ft | 488 kts | 153° |
| 2026-05-04 19:35 | 45.51645 | 19.23268 | 35052 ft | 488 kts | 153° |
| 2026-05-04 19:36 | 45.45581 | 19.27660 | 35057 ft | 489 kts | 153° |
| 2026-05-04 19:36 | 45.39481 | 19.32059 | 35060 ft | 489 kts | 153° |
| 2026-05-04 19:37 | 45.33451 | 19.36411 | 35059 ft | 489 kts | 153° |
| 2026-05-04 19:37 | 45.27390 | 19.40778 | 35056 ft | 489 kts | 153° |
| 2026-05-04 19:38 | 45.21315 | 19.45138 | 35060 ft | 489 kts | 153° |
| 2026-05-04 19:38 | 45.15233 | 19.49486 | 35060 ft | 490 kts | 153° |
| 2026-05-04 19:39 | 45.09146 | 19.53825 | 35076 ft | 490 kts | 153° |
| 2026-05-04 19:39 | 45.03057 | 19.58162 | 35068 ft | 490 kts | 153° |
| 2026-05-04 19:40 | 44.96964 | 19.62495 | 35068 ft | 490 kts | 153° |
| 2026-05-04 19:40 | 44.90852 | 19.66755 | 35062 ft | 490 kts | 157° |
| 2026-05-04 19:41 | 44.84432 | 19.70009 | 35068 ft | 490 kts | 160° |
| 2026-05-04 19:41 | 44.78000 | 19.73217 | 35069 ft | 491 kts | 160° |
| 2026-05-04 19:42 | 44.71556 | 19.76433 | 35066 ft | 491 kts | 160° |
| 2026-05-04 19:42 | 44.65111 | 19.79640 | 35064 ft | 492 kts | 160° |
| 2026-05-04 19:43 | 44.58665 | 19.82834 | 35063 ft | 492 kts | 160° |
| 2026-05-04 19:43 | 44.52204 | 19.86034 | 35067 ft | 492 kts | 160° |
| 2026-05-04 19:44 | 44.45748 | 19.89220 | 35086 ft | 492 kts | 160° |
| 2026-05-04 19:44 | 44.39283 | 19.92409 | 35067 ft | 493 kts | 160° |
| 2026-05-04 19:45 | 44.32812 | 19.95595 | 35074 ft | 493 kts | 160° |
| 2026-05-04 19:45 | 44.26338 | 19.98761 | 35077 ft | 493 kts | 160° |
| 2026-05-04 19:46 | 44.19900 | 20.01896 | 35075 ft | 493 kts | 160° |
| 2026-05-04 19:46 | 44.13418 | 20.05050 | 35086 ft | 493 kts | 160° |
| 2026-05-04 19:47 | 44.06939 | 20.08205 | 35082 ft | 494 kts | 160° |
| 2026-05-04 19:47 | 44.00451 | 20.11356 | 35080 ft | 494 kts | 160° |
| 2026-05-04 19:48 | 43.93966 | 20.14506 | 35086 ft | 494 kts | 160° |
| 2026-05-04 19:48 | 43.87474 | 20.17642 | 35094 ft | 494 kts | 160° |
| 2026-05-04 19:49 | 43.80977 | 20.20767 | 35116 ft | 494 kts | 160° |
| 2026-05-04 19:49 | 43.74476 | 20.23894 | 35096 ft | 495 kts | 160° |
| 2026-05-04 19:50 | 43.69058 | 20.26488 | 35108 ft | 496 kts | 160° |
| 2026-05-04 19:50 | 43.62542 | 20.29608 | 35111 ft | 496 kts | 160° |
| 2026-05-04 19:51 | 43.56019 | 20.32734 | 35110 ft | 496 kts | 160° |
| 2026-05-04 19:51 | 43.49491 | 20.35850 | 35118 ft | 496 kts | 160° |
| 2026-05-04 19:52 | 43.42958 | 20.38949 | 35118 ft | 497 kts | 160° |
| 2026-05-04 19:52 | 43.36414 | 20.42049 | 35120 ft | 498 kts | 160° |
| 2026-05-04 19:53 | 43.29863 | 20.45153 | 35115 ft | 498 kts | 160° |
| 2026-05-04 19:53 | 43.23321 | 20.48255 | 35123 ft | 498 kts | 160° |
| 2026-05-04 19:54 | 43.16764 | 20.51340 | 35146 ft | 499 kts | 161° |
| 2026-05-04 19:54 | 43.10192 | 20.54422 | 35130 ft | 500 kts | 161° |
| 2026-05-04 19:55 | 43.03611 | 20.57504 | 35128 ft | 500 kts | 161° |
| 2026-05-04 19:55 | 42.97050 | 20.60681 | 35126 ft | 500 kts | 159° |
| 2026-05-04 19:56 | 42.90570 | 20.64142 | 35131 ft | 501 kts | 158° |
| 2026-05-04 19:56 | 42.84103 | 20.67676 | 35131 ft | 501 kts | 158° |
| 2026-05-04 19:57 | 42.77615 | 20.71134 | 35132 ft | 501 kts | 158° |
| 2026-05-04 19:57 | 42.71151 | 20.74505 | 35144 ft | 501 kts | 159° |
| 2026-05-04 19:58 | 42.64639 | 20.77884 | 35148 ft | 501 kts | 159° |
| 2026-05-04 19:58 | 42.58132 | 20.81275 | 35172 ft | 501 kts | 158° |
| 2026-05-04 19:59 | 42.51626 | 20.84677 | 35165 ft | 501 kts | 158° |
| 2026-05-04 19:59 | 42.45125 | 20.88073 | 35160 ft | 501 kts | 158° |
| 2026-05-04 20:00 | 42.38613 | 20.91457 | 35150 ft | 501 kts | 159° |
| 2026-05-04 20:00 | 42.32094 | 20.94826 | 35150 ft | 502 kts | 159° |
| 2026-05-04 20:01 | 42.25568 | 20.98183 | 35144 ft | 502 kts | 159° |
| 2026-05-04 20:01 | 42.19039 | 21.01545 | 35138 ft | 502 kts | 159° |
| 2026-05-04 20:02 | 42.12520 | 21.04939 | 35185 ft | 502 kts | 155° |
| 2026-05-04 20:02 | 42.09436 | 21.07100 | 35307 ft | 498 kts | 147° |
| 2026-05-04 20:02 | 42.06506 | 21.09584 | 35431 ft | 497 kts | 147° |
| 2026-05-04 20:02 | 42.03580 | 21.12057 | 35551 ft | 496 kts | 147° |
| 2026-05-04 20:03 | 42.00657 | 21.14521 | 35688 ft | 496 kts | 147° |
| 2026-05-04 20:03 | 41.97744 | 21.16973 | 35810 ft | 494 kts | 147° |
| 2026-05-04 20:03 | 41.94829 | 21.19426 | 35937 ft | 494 kts | 147° |
| 2026-05-04 20:03 | 41.91916 | 21.21876 | 36057 ft | 493 kts | 147° |
| 2026-05-04 20:04 | 41.89011 | 21.24314 | 36182 ft | 492 kts | 147° |
| 2026-05-04 20:04 | 41.86117 | 21.26745 | 36315 ft | 491 kts | 147° |
| 2026-05-04 20:04 | 41.83221 | 21.29176 | 36433 ft | 491 kts | 147° |
| 2026-05-04 20:04 | 41.80331 | 21.31599 | 36560 ft | 490 kts | 147° |
| 2026-05-04 20:05 | 41.77437 | 21.34024 | 36689 ft | 490 kts | 147° |
| 2026-05-04 20:05 | 41.74547 | 21.36444 | 36818 ft | 489 kts | 147° |
| 2026-05-04 20:05 | 41.71665 | 21.38856 | 36947 ft | 489 kts | 147° |
| 2026-05-04 20:05 | 41.68785 | 21.41259 | 37094 ft | 487 kts | 147° |
| 2026-05-04 20:06 | 41.65901 | 21.43664 | 37128 ft | 489 kts | 147° |
| 2026-05-04 20:06 | 41.60142 | 21.48458 | 37129 ft | 493 kts | 147° |
| 2026-05-04 20:07 | 41.54311 | 21.53306 | 37132 ft | 495 kts | 147° |
| 2026-05-04 20:07 | 41.48439 | 21.58172 | 37122 ft | 498 kts | 148° |
| 2026-05-04 20:08 | 41.42537 | 21.63038 | 37132 ft | 499 kts | 148° |
| 2026-05-04 20:08 | 41.36619 | 21.67916 | 37123 ft | 500 kts | 148° |
| 2026-05-04 20:09 | 41.30698 | 21.72791 | 37122 ft | 501 kts | 148° |
| 2026-05-04 20:09 | 41.24766 | 21.77677 | 37119 ft | 502 kts | 148° |
| 2026-05-04 20:10 | 41.18825 | 21.82554 | 37128 ft | 502 kts | 148° |
| 2026-05-04 20:10 | 41.12867 | 21.87418 | 37133 ft | 503 kts | 148° |
| 2026-05-04 20:11 | 41.06910 | 21.92282 | 37133 ft | 503 kts | 147° |
| 2026-05-04 20:11 | 41.01114 | 21.97461 | 37118 ft | 503 kts | 143° |
| 2026-05-04 20:12 | 40.95438 | 22.02888 | 37128 ft | 503 kts | 143° |
| 2026-05-04 20:12 | 40.89778 | 22.08251 | 37111 ft | 504 kts | 144° |
| 2026-05-04 20:13 | 40.84023 | 22.13548 | 37123 ft | 504 kts | 144° |
| 2026-05-04 20:13 | 40.78255 | 22.18796 | 37111 ft | 504 kts | 144° |
| 2026-05-04 20:14 | 40.72484 | 22.24059 | 37093 ft | 504 kts | 144° |
| 2026-05-04 20:14 | 40.66718 | 22.29333 | 37103 ft | 504 kts | 144° |
| 2026-05-04 20:15 | 40.60954 | 22.34603 | 37092 ft | 504 kts | 144° |
| 2026-05-04 20:15 | 40.55185 | 22.39863 | 37095 ft | 504 kts | 144° |
| 2026-05-04 20:16 | 40.49410 | 22.45108 | 37090 ft | 504 kts | 144° |
| 2026-05-04 20:16 | 40.43651 | 22.50327 | 37088 ft | 502 kts | 144° |
| 2026-05-04 20:17 | 40.37902 | 22.55514 | 37100 ft | 501 kts | 144° |
| 2026-05-04 20:17 | 40.32099 | 22.60588 | 37084 ft | 502 kts | 151° |
| 2026-05-04 20:18 | 40.25879 | 22.64629 | 37083 ft | 503 kts | 154° |
| 2026-05-04 20:18 | 40.19544 | 22.68649 | 37090 ft | 503 kts | 154° |
| 2026-05-04 20:19 | 40.13280 | 22.72631 | 37100 ft | 504 kts | 154° |
| 2026-05-04 20:19 | 40.06974 | 22.76646 | 37088 ft | 505 kts | 154° |
| 2026-05-04 20:20 | 40.00654 | 22.80656 | 37123 ft | 505 kts | 154° |
| 2026-05-04 20:20 | 39.94340 | 22.84651 | 37136 ft | 504 kts | 154° |
| 2026-05-04 20:21 | 39.88033 | 22.88631 | 37126 ft | 503 kts | 154° |
| 2026-05-04 20:21 | 39.78568 | 22.94580 | 37099 ft | 504 kts | 154° |
| 2026-05-04 20:22 | 39.72249 | 22.98548 | 37099 ft | 505 kts | 154° |
| 2026-05-04 20:22 | 39.65923 | 23.02514 | 37113 ft | 505 kts | 154° |
| 2026-05-04 20:23 | 39.59591 | 23.06465 | 37101 ft | 506 kts | 154° |
| 2026-05-04 20:23 | 39.53248 | 23.10438 | 37118 ft | 507 kts | 154° |
| 2026-05-04 20:24 | 39.46897 | 23.14395 | 37132 ft | 506 kts | 154° |
| 2026-05-04 20:24 | 39.40556 | 23.18330 | 37143 ft | 505 kts | 154° |
| 2026-05-04 20:25 | 39.34223 | 23.22260 | 37110 ft | 505 kts | 155° |
| 2026-05-04 20:25 | 39.27882 | 23.26190 | 37105 ft | 506 kts | 155° |
| 2026-05-04 20:26 | 39.21534 | 23.30116 | 37109 ft | 506 kts | 155° |
| 2026-05-04 20:26 | 39.15183 | 23.34028 | 37115 ft | 506 kts | 155° |
| 2026-05-04 20:27 | 39.08807 | 23.37944 | 37111 ft | 509 kts | 155° |
| 2026-05-04 20:27 | 39.02411 | 23.41872 | 37110 ft | 510 kts | 155° |
| 2026-05-04 20:28 | 38.96006 | 23.45802 | 37129 ft | 510 kts | 155° |
| 2026-05-04 20:28 | 38.89613 | 23.49714 | 37138 ft | 508 kts | 155° |
| 2026-05-04 20:29 | 38.83262 | 23.53582 | 37128 ft | 509 kts | 155° |
| 2026-05-04 20:29 | 38.76863 | 23.57483 | 37138 ft | 510 kts | 155° |
| 2026-05-04 20:30 | 38.70463 | 23.61384 | 37142 ft | 510 kts | 155° |
| 2026-05-04 20:30 | 38.64046 | 23.65278 | 37132 ft | 511 kts | 155° |
| 2026-05-04 20:31 | 38.57613 | 23.69176 | 37129 ft | 512 kts | 155° |
| 2026-05-04 20:31 | 38.51161 | 23.73070 | 37139 ft | 513 kts | 155° |
| 2026-05-04 20:32 | 38.44700 | 23.76960 | 37172 ft | 513 kts | 155° |
| 2026-05-04 20:32 | 38.38254 | 23.80845 | 37151 ft | 512 kts | 155° |
| 2026-05-04 20:33 | 38.31808 | 23.84719 | 37153 ft | 513 kts | 155° |
| 2026-05-04 20:33 | 38.25352 | 23.88589 | 37153 ft | 513 kts | 155° |
| 2026-05-04 20:34 | 38.18890 | 23.92456 | 37161 ft | 513 kts | 155° |
| 2026-05-04 20:34 | 38.12431 | 23.96317 | 37144 ft | 512 kts | 155° |
| 2026-05-04 20:35 | 38.05973 | 24.00159 | 37147 ft | 513 kts | 155° |
| 2026-05-04 20:35 | 37.99513 | 24.03995 | 37144 ft | 513 kts | 155° |
| 2026-05-04 20:36 | 37.93065 | 24.07831 | 37175 ft | 512 kts | 155° |
| 2026-05-04 20:36 | 37.86673 | 24.11628 | 37161 ft | 511 kts | 155° |
| 2026-05-04 20:37 | 37.80221 | 24.15441 | 37156 ft | 512 kts | 156° |
| 2026-05-04 20:37 | 37.73759 | 24.19252 | 37153 ft | 513 kts | 156° |
| 2026-05-04 20:38 | 37.67291 | 24.23067 | 37163 ft | 513 kts | 156° |
| 2026-05-04 20:38 | 37.60810 | 24.26882 | 37129 ft | 515 kts | 156° |
| 2026-05-04 20:39 | 37.54398 | 24.30902 | 37126 ft | 516 kts | 148° |
| 2026-05-04 20:39 | 37.48299 | 24.35702 | 37145 ft | 517 kts | 148° |
| 2026-05-04 20:40 | 37.43218 | 24.39689 | 37171 ft | 518 kts | 148° |
| 2026-05-04 20:40 | 37.37113 | 24.44475 | 37140 ft | 518 kts | 148° |
| 2026-05-04 20:41 | 37.31000 | 24.49271 | 37141 ft | 518 kts | 148° |
| 2026-05-04 20:41 | 37.24871 | 24.54056 | 37147 ft | 519 kts | 149° |
| 2026-05-04 20:42 | 37.18734 | 24.58834 | 37147 ft | 519 kts | 149° |
| 2026-05-04 20:42 | 37.12593 | 24.63616 | 37131 ft | 520 kts | 149° |
| 2026-05-04 20:43 | 37.06441 | 24.68403 | 37127 ft | 521 kts | 149° |
| 2026-05-04 20:43 | 37.00272 | 24.73186 | 37138 ft | 522 kts | 149° |
| 2026-05-04 20:44 | 36.94095 | 24.77953 | 37140 ft | 523 kts | 149° |
| 2026-05-04 20:44 | 36.87907 | 24.82731 | 37126 ft | 523 kts | 149° |
| 2026-05-04 20:45 | 36.81717 | 24.87529 | 37128 ft | 524 kts | 149° |
| 2026-05-04 20:45 | 36.75511 | 24.92328 | 37126 ft | 525 kts | 149° |
| 2026-05-04 20:46 | 36.69331 | 24.97087 | 37135 ft | 526 kts | 149° |
| 2026-05-04 20:46 | 36.63099 | 25.01871 | 37164 ft | 526 kts | 149° |
| 2026-05-04 20:47 | 36.56950 | 25.06580 | 36976 ft | 506 kts | 149° |
| 2026-05-04 20:47 | 36.53970 | 25.08856 | 36416 ft | 503 kts | 149° |
| 2026-05-04 20:47 | 36.50995 | 25.11128 | 35792 ft | 501 kts | 149° |
| 2026-05-04 20:48 | 36.48032 | 25.13390 | 35180 ft | 499 kts | 149° |
| 2026-05-04 20:48 | 36.45080 | 25.15641 | 34585 ft | 497 kts | 149° |
| 2026-05-04 20:48 | 36.42138 | 25.17882 | 33979 ft | 495 kts | 148° |
| 2026-05-04 20:48 | 36.39208 | 25.20111 | 33302 ft | 493 kts | 148° |
| 2026-05-04 20:49 | 36.36294 | 25.22327 | 32638 ft | 490 kts | 148° |
| 2026-05-04 20:49 | 36.33399 | 25.24525 | 31993 ft | 486 kts | 149° |
| 2026-05-04 20:49 | 36.30524 | 25.26706 | 31363 ft | 483 kts | 148° |
| 2026-05-04 20:49 | 36.27671 | 25.28873 | 30745 ft | 479 kts | 148° |
| 2026-05-04 20:50 | 36.24842 | 25.31019 | 30132 ft | 475 kts | 148° |
| 2026-05-04 20:50 | 36.22037 | 25.33144 | 29443 ft | 471 kts | 148° |
| 2026-05-04 20:50 | 36.19255 | 25.35247 | 28751 ft | 466 kts | 148° |
| 2026-05-04 20:50 | 36.16496 | 25.37329 | 28081 ft | 462 kts | 148° |
| 2026-05-04 20:51 | 36.13754 | 25.39381 | 27431 ft | 459 kts | 150° |
| 2026-05-04 20:51 | 36.10882 | 25.41047 | 26780 ft | 456 kts | 160° |
| 2026-05-04 20:51 | 36.07888 | 25.42285 | 26153 ft | 452 kts | 162° |
| 2026-05-04 20:51 | 36.04947 | 25.43469 | 25543 ft | 449 kts | 162° |
| 2026-05-04 20:52 | 36.01988 | 25.44660 | 24946 ft | 446 kts | 162° |
| 2026-05-04 20:52 | 35.99051 | 25.45841 | 24357 ft | 442 kts | 162° |
| 2026-05-04 20:52 | 35.96134 | 25.47011 | 23781 ft | 439 kts | 162° |
| 2026-05-04 20:52 | 35.93236 | 25.48172 | 23107 ft | 437 kts | 162° |
| 2026-05-04 20:53 | 35.90353 | 25.49329 | 22442 ft | 436 kts | 162° |
| 2026-05-04 20:53 | 35.87468 | 25.50489 | 21798 ft | 435 kts | 162° |
| 2026-05-04 20:53 | 35.84596 | 25.51645 | 21133 ft | 433 kts | 162° |
| 2026-05-04 20:53 | 35.81727 | 25.52794 | 20431 ft | 433 kts | 162° |
| 2026-05-04 20:54 | 35.78859 | 25.53937 | 19742 ft | 433 kts | 162° |
| 2026-05-04 20:54 | 35.75995 | 25.55078 | 19071 ft | 432 kts | 162° |
| 2026-05-04 20:54 | 35.73135 | 25.56221 | 18410 ft | 432 kts | 162° |
| 2026-05-04 20:54 | 35.70316 | 25.57458 | 17660 ft | 431 kts | 155° |
| 2026-05-04 20:55 | 35.67762 | 25.59355 | 16924 ft | 428 kts | 141° |
| 2026-05-04 20:55 | 35.65436 | 25.61636 | 16207 ft | 427 kts | 140° |
| 2026-05-04 20:55 | 35.63165 | 25.63880 | 15495 ft | 410 kts | 140° |
| 2026-05-04 20:55 | 35.60791 | 25.65676 | 14829 ft | 396 kts | 160° |
| 2026-05-04 20:56 | 35.58129 | 25.66187 | 14155 ft | 385 kts | 185° |
| 2026-05-04 20:56 | 35.55596 | 25.65321 | 13439 ft | 376 kts | 211° |
| 2026-05-04 20:56 | 35.53661 | 25.63282 | 12691 ft | 363 kts | 238° |
| 2026-05-04 20:56 | 35.52632 | 25.60544 | 11932 ft | 346 kts | 258° |
| 2026-05-04 20:57 | 35.51890 | 25.57778 | 11189 ft | 339 kts | 247° |
| 2026-05-04 20:57 | 35.50436 | 25.55530 | 10449 ft | 339 kts | 223° |
| 2026-05-04 20:57 | 35.48548 | 25.53836 | 9707 ft | 334 kts | 217° |
| 2026-05-04 20:57 | 35.46581 | 25.52365 | 8913 ft | 328 kts | 213° |
| 2026-05-04 20:58 | 35.44606 | 25.51002 | 8145 ft | 323 kts | 212° |
| 2026-05-04 20:58 | 35.42662 | 25.49676 | 7398 ft | 318 kts | 212° |
| 2026-05-04 20:58 | 35.40778 | 25.48362 | 6671 ft | 313 kts | 213° |
| 2026-05-04 20:58 | 35.38915 | 25.47022 | 5890 ft | 307 kts | 214° |
| 2026-05-04 20:59 | 35.37113 | 25.45662 | 5121 ft | 300 kts | 219° |
| 2026-05-04 20:59 | 35.35803 | 25.43797 | 4347 ft | 285 kts | 246° |
| 2026-05-04 20:59 | 35.34943 | 25.41646 | 3586 ft | 278 kts | 248° |
| 2026-05-04 20:59 | 35.34125 | 25.39522 | 2824 ft | 273 kts | 248° |
| 2026-05-04 21:00 | 35.33352 | 25.37491 | 2556 ft | 250 kts | 248° |
| 2026-05-04 21:00 | 35.32829 | 25.35603 | 2504 ft | 219 kts | 268° |
| 2026-05-04 21:00 | 35.32885 | 25.33871 | 2501 ft | 192 kts | 277° |
| 2026-05-04 21:00 | 35.32991 | 25.32355 | 2444 ft | 168 kts | 277° |
| 2026-05-04 21:01 | 35.33081 | 25.31013 | 2234 ft | 146 kts | 277° |
| 2026-05-04 21:01 | 35.33159 | 25.29845 | 2040 ft | 131 kts | 276° |
| 2026-05-04 21:01 | 35.33234 | 25.28764 | 1856 ft | 125 kts | 276° |
| 2026-05-04 21:01 | 35.33307 | 25.27714 | 1659 ft | 123 kts | 277° |
| 2026-05-04 21:02 | 35.33379 | 25.26641 | 1458 ft | 131 kts | 277° |
| 2026-05-04 21:02 | 35.33459 | 25.25513 | 1275 ft | 132 kts | 276° |
| 2026-05-04 21:02 | 35.33536 | 25.24397 | 1065 ft | 132 kts | 275° |
| 2026-05-04 21:02 | 35.33615 | 25.23269 | 858 ft | 134 kts | 273° |
| 2026-05-04 21:03 | 35.33695 | 25.22138 | 670 ft | 135 kts | 274° |
| 2026-05-04 21:03 | 35.33775 | 25.21000 | 472 ft | 134 kts | 273° |
| 2026-05-04 21:03 | 35.33855 | 25.19860 | 258 ft | 134 kts | 272° |
| 2026-05-04 21:03 | 35.33930 | 25.18729 | 98 ft | 128 kts | 272° |
| 2026-05-04 21:04 | 35.33992 | 25.17790 | 94 ft | 88 kts | 275° |
| 2026-05-04 21:04 | 35.34029 | 25.17263 | 92 ft | 35 kts | 271° |
| 2026-05-04 21:04 | 35.33986 | 25.17084 | 92 ft | 10 kts | 242° |
| 2026-05-04 21:04 | 35.33944 | 25.17076 | 91 ft | 7 kts | 122° |
| 2026-05-04 21:05 | 35.33936 | 25.17138 | 90 ft | 10 kts | 94° |
| 2026-05-04 21:05 | 35.33929 | 25.17247 | 91 ft | 10 kts | 94° |
| 2026-05-04 21:05 | 35.33925 | 25.17327 | 91 ft | 9 kts | 94° |
| 2026-05-04 21:05 | 35.33892 | 25.17376 | 91 ft | 7 kts | 156° |
| 2026-05-04 21:06 | 35.33848 | 25.17372 | 92 ft | 6 kts | 204° |
| 2026-05-04 21:06 | 35.33842 | 25.17333 | 91 ft | 5 kts | 282° |
| 2026-05-04 21:06 | 35.33857 | 25.17306 | 91 ft | 3 kts | 314° |
| 2026-05-04 21:06 | 35.33868 | 25.17293 | 91 ft | 1 kts | 315° |